sensor_id;sensor_type;location;lat;lon;timestamp;P1;durP1;ratioP1;P2;durP2;ratioP2
44558;SDS011;30270;40.238;18.256;2022-10-17T00:01:03;28.48;;;17.05;;
44558;SDS011;30270;40.238;18.256;2022-10-17T00:03:36;24.38;;;17.08;;
44558;SDS011;30270;40.238;18.256;2022-10-17T00:06:12;30.38;;;19.52;;
44558;SDS011;30270;40.238;18.256;2022-10-17T00:08:41;25.77;;;18.25;;
44558;SDS011;30270;40.238;18.256;2022-10-17T00:11:17;27.88;;;19.00;;
44558;SDS011;30270;40.238;18.256;2022-10-17T00:13:49;27.08;;;17.67;;
44558;SDS011;30270;40.238;18.256;2022-10-17T00:16:22;30.25;;;20.13;;
44558;SDS011;30270;40.238;18.256;2022-10-17T00:18:51;28.65;;;18.48;;
44558;SDS011;30270;40.238;18.256;2022-10-17T00:21:20;31.85;;;19.02;;
44558;SDS011;30270;40.238;18.256;2022-10-17T00:23:48;30.65;;;18.98;;
44558;SDS011;30270;40.238;18.256;2022-10-17T00:26:16;31.23;;;19.67;;
44558;SDS011;30270;40.238;18.256;2022-10-17T00:28:47;26.60;;;19.25;;
44558;SDS011;30270;40.238;18.256;2022-10-17T00:31:16;36.55;;;20.33;;
44558;SDS011;30270;40.238;18.256;2022-10-17T00:33:45;32.92;;;21.10;;
44558;SDS011;30270;40.238;18.256;2022-10-17T00:36:18;30.63;;;19.63;;
44558;SDS011;30270;40.238;18.256;2022-10-17T00:38:56;30.50;;;19.67;;
44558;SDS011;30270;40.238;18.256;2022-10-17T00:41:26;33.28;;;19.92;;
44558;SDS011;30270;40.238;18.256;2022-10-17T00:46:30;30.65;;;19.92;;
44558;SDS011;30270;40.238;18.256;2022-10-17T00:49:00;31.25;;;20.10;;
44558;SDS011;30270;40.238;18.256;2022-10-17T00:51:42;36.30;;;20.50;;
44558;SDS011;30270;40.238;18.256;2022-10-17T00:54:12;30.58;;;20.67;;
44558;SDS011;30270;40.238;18.256;2022-10-17T00:56:42;30.10;;;20.40;;
44558;SDS011;30270;40.238;18.256;2022-10-17T00:59:11;33.05;;;18.92;;
44558;SDS011;30270;40.238;18.256;2022-10-17T01:01:40;30.02;;;20.63;;
44558;SDS011;30270;40.238;18.256;2022-10-17T01:04:11;31.92;;;19.00;;
44558;SDS011;30270;40.238;18.256;2022-10-17T01:06:39;38.72;;;21.75;;
44558;SDS011;30270;40.238;18.256;2022-10-17T01:09:07;33.50;;;22.13;;
44558;SDS011;30270;40.238;18.256;2022-10-17T01:14:22;30.77;;;21.15;;
44558;SDS011;30270;40.238;18.256;2022-10-17T01:20:17;36.97;;;23.23;;
44558;SDS011;30270;40.238;18.256;2022-10-17T01:23:11;33.08;;;23.67;;
44558;SDS011;30270;40.238;18.256;2022-10-17T01:31:55;34.28;;;21.05;;
44558;SDS011;30270;40.238;18.256;2022-10-17T01:38:07;36.00;;;23.40;;
44558;SDS011;30270;40.238;18.256;2022-10-17T01:40:44;34.15;;;21.60;;
44558;SDS011;30270;40.238;18.256;2022-10-17T01:43:15;34.80;;;20.55;;
44558;SDS011;30270;40.238;18.256;2022-10-17T01:46:26;31.52;;;19.95;;
44558;SDS011;30270;40.238;18.256;2022-10-17T01:49:13;34.22;;;22.27;;
44558;SDS011;30270;40.238;18.256;2022-10-17T01:51:47;33.55;;;20.92;;
44558;SDS011;30270;40.238;18.256;2022-10-17T01:54:39;41.25;;;22.05;;
44558;SDS011;30270;40.238;18.256;2022-10-17T01:57:23;32.13;;;21.88;;
44558;SDS011;30270;40.238;18.256;2022-10-17T01:59:57;30.73;;;19.27;;
44558;SDS011;30270;40.238;18.256;2022-10-17T02:02:26;40.33;;;22.83;;
44558;SDS011;30270;40.238;18.256;2022-10-17T02:04:55;32.22;;;19.42;;
44558;SDS011;30270;40.238;18.256;2022-10-17T02:07:25;36.88;;;19.92;;
44558;SDS011;30270;40.238;18.256;2022-10-17T02:09:52;31.98;;;20.42;;
44558;SDS011;30270;40.238;18.256;2022-10-17T02:23:35;27.90;;;17.38;;
44558;SDS011;30270;40.238;18.256;2022-10-17T02:28:56;27.42;;;17.60;;
44558;SDS011;30270;40.238;18.256;2022-10-17T02:31:25;28.83;;;18.77;;
44558;SDS011;30270;40.238;18.256;2022-10-17T02:33:58;26.52;;;18.15;;
44558;SDS011;30270;40.238;18.256;2022-10-17T02:36:35;27.48;;;19.80;;
44558;SDS011;30270;40.238;18.256;2022-10-17T02:39:06;24.42;;;17.98;;
44558;SDS011;30270;40.238;18.256;2022-10-17T02:41:38;28.02;;;19.00;;
44558;SDS011;30270;40.238;18.256;2022-10-17T02:44:07;30.80;;;19.70;;
44558;SDS011;30270;40.238;18.256;2022-10-17T02:46:37;30.25;;;17.67;;
44558;SDS011;30270;40.238;18.256;2022-10-17T02:49:09;29.58;;;17.90;;
44558;SDS011;30270;40.238;18.256;2022-10-17T02:51:50;29.45;;;19.27;;
44558;SDS011;30270;40.238;18.256;2022-10-17T02:54:33;32.13;;;19.77;;
44558;SDS011;30270;40.238;18.256;2022-10-17T03:00:03;28.58;;;17.98;;
44558;SDS011;30270;40.238;18.256;2022-10-17T03:02:41;30.10;;;19.33;;
44558;SDS011;30270;40.238;18.256;2022-10-17T03:05:12;28.90;;;19.42;;
44558;SDS011;30270;40.238;18.256;2022-10-17T03:07:43;29.58;;;19.65;;
44558;SDS011;30270;40.238;18.256;2022-10-17T03:10:11;29.75;;;19.88;;
44558;SDS011;30270;40.238;18.256;2022-10-17T03:12:39;30.70;;;20.70;;
44558;SDS011;30270;40.238;18.256;2022-10-17T03:15:08;31.05;;;21.55;;
44558;SDS011;30270;40.238;18.256;2022-10-17T03:17:36;31.98;;;18.38;;
44558;SDS011;30270;40.238;18.256;2022-10-17T03:20:06;32.38;;;19.73;;
44558;SDS011;30270;40.238;18.256;2022-10-17T03:22:35;31.13;;;19.02;;
44558;SDS011;30270;40.238;18.256;2022-10-17T03:25:04;30.85;;;20.70;;
44558;SDS011;30270;40.238;18.256;2022-10-17T03:27:34;28.10;;;20.98;;
44558;SDS011;30270;40.238;18.256;2022-10-17T03:30:02;31.05;;;21.30;;
44558;SDS011;30270;40.238;18.256;2022-10-17T03:32:34;42.67;;;24.67;;
44558;SDS011;30270;40.238;18.256;2022-10-17T03:35:02;36.28;;;25.20;;
44558;SDS011;30270;40.238;18.256;2022-10-17T03:37:30;37.05;;;22.42;;
44558;SDS011;30270;40.238;18.256;2022-10-17T03:39:59;37.33;;;23.33;;
44558;SDS011;30270;40.238;18.256;2022-10-17T03:42:28;39.05;;;24.95;;
44558;SDS011;30270;40.238;18.256;2022-10-17T03:44:57;41.53;;;24.70;;
44558;SDS011;30270;40.238;18.256;2022-10-17T03:47:26;39.47;;;24.42;;
44558;SDS011;30270;40.238;18.256;2022-10-17T03:49:55;41.28;;;25.65;;
44558;SDS011;30270;40.238;18.256;2022-10-17T03:52:23;40.85;;;25.00;;
44558;SDS011;30270;40.238;18.256;2022-10-17T03:54:51;39.60;;;26.30;;
44558;SDS011;30270;40.238;18.256;2022-10-17T03:57:18;40.13;;;25.70;;
44558;SDS011;30270;40.238;18.256;2022-10-17T03:59:46;38.72;;;24.48;;
44558;SDS011;30270;40.238;18.256;2022-10-17T04:02:19;37.45;;;23.15;;
44558;SDS011;30270;40.238;18.256;2022-10-17T04:04:48;35.88;;;25.15;;
44558;SDS011;30270;40.238;18.256;2022-10-17T04:07:16;42.53;;;26.67;;
44558;SDS011;30270;40.238;18.256;2022-10-17T04:09:46;36.97;;;24.02;;
44558;SDS011;30270;40.238;18.256;2022-10-17T04:12:18;39.75;;;26.50;;
44558;SDS011;30270;40.238;18.256;2022-10-17T04:14:47;39.72;;;24.67;;
44558;SDS011;30270;40.238;18.256;2022-10-17T04:17:15;36.30;;;24.88;;
44558;SDS011;30270;40.238;18.256;2022-10-17T04:19:43;39.40;;;24.42;;
44558;SDS011;30270;40.238;18.256;2022-10-17T04:22:14;32.53;;;20.23;;
44558;SDS011;30270;40.238;18.256;2022-10-17T04:24:42;30.10;;;19.20;;
44558;SDS011;30270;40.238;18.256;2022-10-17T04:27:26;31.63;;;19.67;;
44558;SDS011;30270;40.238;18.256;2022-10-17T04:29:54;29.80;;;18.83;;
44558;SDS011;30270;40.238;18.256;2022-10-17T04:32:23;28.42;;;21.00;;
44558;SDS011;30270;40.238;18.256;2022-10-17T04:35:17;27.00;;;18.48;;
44558;SDS011;30270;40.238;18.256;2022-10-17T04:37:50;29.80;;;21.00;;
44558;SDS011;30270;40.238;18.256;2022-10-17T04:40:19;34.05;;;19.48;;
44558;SDS011;30270;40.238;18.256;2022-10-17T04:42:49;35.15;;;20.33;;
44558;SDS011;30270;40.238;18.256;2022-10-17T04:45:22;33.58;;;20.42;;
44558;SDS011;30270;40.238;18.256;2022-10-17T04:47:56;36.88;;;21.88;;
44558;SDS011;30270;40.238;18.256;2022-10-17T04:50:24;32.78;;;20.85;;
44558;SDS011;30270;40.238;18.256;2022-10-17T04:53:10;34.70;;;19.88;;
44558;SDS011;30270;40.238;18.256;2022-10-17T04:55:38;32.28;;;20.25;;
44558;SDS011;30270;40.238;18.256;2022-10-17T04:58:05;27.05;;;18.48;;
44558;SDS011;30270;40.238;18.256;2022-10-17T05:00:34;34.58;;;21.17;;
44558;SDS011;30270;40.238;18.256;2022-10-17T05:03:18;32.42;;;19.00;;
44558;SDS011;30270;40.238;18.256;2022-10-17T05:05:45;32.30;;;18.55;;
44558;SDS011;30270;40.238;18.256;2022-10-17T05:08:13;28.08;;;18.80;;
44558;SDS011;30270;40.238;18.256;2022-10-17T05:10:42;31.55;;;19.42;;
44558;SDS011;30270;40.238;18.256;2022-10-17T05:13:12;35.25;;;18.13;;
44558;SDS011;30270;40.238;18.256;2022-10-17T05:15:40;30.98;;;19.75;;
44558;SDS011;30270;40.238;18.256;2022-10-17T05:18:10;31.35;;;17.40;;
44558;SDS011;30270;40.238;18.256;2022-10-17T05:20:40;31.10;;;19.90;;
44558;SDS011;30270;40.238;18.256;2022-10-17T05:23:09;29.52;;;18.05;;
44558;SDS011;30270;40.238;18.256;2022-10-17T05:25:41;32.15;;;20.25;;
44558;SDS011;30270;40.238;18.256;2022-10-17T05:28:10;35.33;;;18.25;;
44558;SDS011;30270;40.238;18.256;2022-10-17T05:30:40;26.35;;;19.15;;
44558;SDS011;30270;40.238;18.256;2022-10-17T05:33:08;34.78;;;21.25;;
44558;SDS011;30270;40.238;18.256;2022-10-17T05:35:36;31.45;;;20.30;;
44558;SDS011;30270;40.238;18.256;2022-10-17T05:38:04;33.05;;;20.00;;
44558;SDS011;30270;40.238;18.256;2022-10-17T05:40:34;32.38;;;23.23;;
44558;SDS011;30270;40.238;18.256;2022-10-17T05:43:02;32.63;;;20.98;;
44558;SDS011;30270;40.238;18.256;2022-10-17T05:45:29;31.58;;;21.98;;
44558;SDS011;30270;40.238;18.256;2022-10-17T05:47:58;29.77;;;20.58;;
44558;SDS011;30270;40.238;18.256;2022-10-17T05:50:27;36.28;;;23.55;;
44558;SDS011;30270;40.238;18.256;2022-10-17T05:53:03;37.33;;;23.05;;
44558;SDS011;30270;40.238;18.256;2022-10-17T05:55:36;38.67;;;23.58;;
44558;SDS011;30270;40.238;18.256;2022-10-17T05:58:04;36.78;;;22.70;;
44558;SDS011;30270;40.238;18.256;2022-10-17T06:00:37;42.42;;;27.23;;
44558;SDS011;30270;40.238;18.256;2022-10-17T06:03:05;38.97;;;25.23;;
44558;SDS011;30270;40.238;18.256;2022-10-17T06:05:34;37.88;;;24.15;;
44558;SDS011;30270;40.238;18.256;2022-10-17T06:08:01;40.20;;;24.10;;
44558;SDS011;30270;40.238;18.256;2022-10-17T06:10:33;39.70;;;26.13;;
44558;SDS011;30270;40.238;18.256;2022-10-17T06:13:01;36.00;;;22.98;;
44558;SDS011;30270;40.238;18.256;2022-10-17T06:15:28;36.25;;;23.90;;
44558;SDS011;30270;40.238;18.256;2022-10-17T06:18:01;40.15;;;23.80;;
44558;SDS011;30270;40.238;18.256;2022-10-17T06:20:29;36.72;;;24.20;;
44558;SDS011;30270;40.238;18.256;2022-10-17T06:22:57;37.05;;;22.75;;
44558;SDS011;30270;40.238;18.256;2022-10-17T06:25:41;36.63;;;26.00;;
44558;SDS011;30270;40.238;18.256;2022-10-17T06:28:09;33.75;;;22.65;;
44558;SDS011;30270;40.238;18.256;2022-10-17T06:30:38;35.05;;;22.52;;
44558;SDS011;30270;40.238;18.256;2022-10-17T06:33:07;34.53;;;23.58;;
44558;SDS011;30270;40.238;18.256;2022-10-17T06:35:34;33.88;;;21.10;;
44558;SDS011;30270;40.238;18.256;2022-10-17T06:38:03;34.00;;;22.52;;
44558;SDS011;30270;40.238;18.256;2022-10-17T06:40:32;31.92;;;21.35;;
44558;SDS011;30270;40.238;18.256;2022-10-17T06:43:00;29.75;;;18.13;;
44558;SDS011;30270;40.238;18.256;2022-10-17T06:45:50;33.22;;;18.63;;
44558;SDS011;30270;40.238;18.256;2022-10-17T06:48:50;31.73;;;20.35;;
44558;SDS011;30270;40.238;18.256;2022-10-17T06:51:37;30.95;;;20.50;;
44558;SDS011;30270;40.238;18.256;2022-10-17T06:54:08;27.70;;;19.98;;
44558;SDS011;30270;40.238;18.256;2022-10-17T06:56:54;31.50;;;20.23;;
44558;SDS011;30270;40.238;18.256;2022-10-17T06:59:40;28.38;;;20.52;;
44558;SDS011;30270;40.238;18.256;2022-10-17T07:02:27;30.58;;;19.23;;
44558;SDS011;30270;40.238;18.256;2022-10-17T07:04:58;35.47;;;19.58;;
44558;SDS011;30270;40.238;18.256;2022-10-17T07:07:28;30.50;;;19.60;;
44558;SDS011;30270;40.238;18.256;2022-10-17T07:09:58;31.67;;;20.35;;
44558;SDS011;30270;40.238;18.256;2022-10-17T07:12:26;27.92;;;18.45;;
44558;SDS011;30270;40.238;18.256;2022-10-17T07:14:54;25.40;;;18.30;;
44558;SDS011;30270;40.238;18.256;2022-10-17T07:17:22;27.60;;;19.92;;
44558;SDS011;30270;40.238;18.256;2022-10-17T07:19:50;25.80;;;18.55;;
44558;SDS011;30270;40.238;18.256;2022-10-17T07:22:19;27.80;;;19.02;;
44558;SDS011;30270;40.238;18.256;2022-10-17T07:24:49;26.88;;;18.52;;
44558;SDS011;30270;40.238;18.256;2022-10-17T07:27:23;26.20;;;18.40;;
44558;SDS011;30270;40.238;18.256;2022-10-17T07:29:51;28.20;;;18.55;;
44558;SDS011;30270;40.238;18.256;2022-10-17T07:32:39;31.20;;;18.73;;
44558;SDS011;30270;40.238;18.256;2022-10-17T07:35:08;23.00;;;16.35;;
44558;SDS011;30270;40.238;18.256;2022-10-17T07:37:38;24.45;;;17.13;;
44558;SDS011;30270;40.238;18.256;2022-10-17T07:40:07;22.85;;;16.08;;
44558;SDS011;30270;40.238;18.256;2022-10-17T07:42:38;23.90;;;16.55;;
44558;SDS011;30270;40.238;18.256;2022-10-17T07:45:09;23.10;;;17.27;;
44558;SDS011;30270;40.238;18.256;2022-10-17T07:47:37;22.02;;;15.52;;
44558;SDS011;30270;40.238;18.256;2022-10-17T07:50:07;25.33;;;17.70;;
44558;SDS011;30270;40.238;18.256;2022-10-17T07:52:35;24.83;;;16.02;;
44558;SDS011;30270;40.238;18.256;2022-10-17T07:55:02;24.58;;;17.20;;
44558;SDS011;30270;40.238;18.256;2022-10-17T07:57:31;25.02;;;16.15;;
44558;SDS011;30270;40.238;18.256;2022-10-17T07:59:59;19.52;;;14.85;;
44558;SDS011;30270;40.238;18.256;2022-10-17T08:02:27;24.58;;;17.60;;
44558;SDS011;30270;40.238;18.256;2022-10-17T08:04:54;24.20;;;15.55;;
44558;SDS011;30270;40.238;18.256;2022-10-17T08:07:25;22.77;;;14.85;;
44558;SDS011;30270;40.238;18.256;2022-10-17T08:09:55;22.65;;;15.93;;
44558;SDS011;30270;40.238;18.256;2022-10-17T08:12:22;22.55;;;14.32;;
44558;SDS011;30270;40.238;18.256;2022-10-17T08:14:51;20.92;;;13.77;;
44558;SDS011;30270;40.238;18.256;2022-10-17T08:17:19;21.63;;;15.93;;
44558;SDS011;30270;40.238;18.256;2022-10-17T08:19:47;26.20;;;15.18;;
44558;SDS011;30270;40.238;18.256;2022-10-17T08:22:15;21.30;;;14.52;;
44558;SDS011;30270;40.238;18.256;2022-10-17T08:24:43;21.13;;;14.63;;
44558;SDS011;30270;40.238;18.256;2022-10-17T08:27:12;20.60;;;13.75;;
44558;SDS011;30270;40.238;18.256;2022-10-17T08:29:39;22.80;;;15.20;;
44558;SDS011;30270;40.238;18.256;2022-10-17T08:32:07;22.60;;;15.20;;
44558;SDS011;30270;40.238;18.256;2022-10-17T08:34:35;24.05;;;15.07;;
44558;SDS011;30270;40.238;18.256;2022-10-17T08:37:03;19.52;;;13.20;;
44558;SDS011;30270;40.238;18.256;2022-10-17T08:39:31;19.98;;;12.68;;
44558;SDS011;30270;40.238;18.256;2022-10-17T08:42:07;20.45;;;13.05;;
44558;SDS011;30270;40.238;18.256;2022-10-17T08:47:37;20.35;;;15.18;;
44558;SDS011;30270;40.238;18.256;2022-10-17T08:52:55;20.17;;;12.98;;
44558;SDS011;30270;40.238;18.256;2022-10-17T08:55:37;18.10;;;12.25;;
44558;SDS011;30270;40.238;18.256;2022-10-17T08:58:12;17.27;;;12.48;;
44558;SDS011;30270;40.238;18.256;2022-10-17T09:00:41;18.05;;;12.55;;
44558;SDS011;30270;40.238;18.256;2022-10-17T09:06:00;17.80;;;11.85;;
44558;SDS011;30270;40.238;18.256;2022-10-17T09:19:45;17.90;;;13.07;;
44558;SDS011;30270;40.238;18.256;2022-10-17T09:22:24;17.50;;;11.68;;
44558;SDS011;30270;40.238;18.256;2022-10-17T09:24:57;22.02;;;12.88;;
44558;SDS011;30270;40.238;18.256;2022-10-17T09:27:33;18.25;;;12.82;;
44558;SDS011;30270;40.238;18.256;2022-10-17T09:33:14;17.85;;;12.95;;
44558;SDS011;30270;40.238;18.256;2022-10-17T09:35:48;14.77;;;11.02;;
44558;SDS011;30270;40.238;18.256;2022-10-17T09:38:18;16.80;;;11.75;;
44558;SDS011;30270;40.238;18.256;2022-10-17T09:40:55;14.85;;;10.50;;
44558;SDS011;30270;40.238;18.256;2022-10-17T09:43:26;17.17;;;11.82;;
44558;SDS011;30270;40.238;18.256;2022-10-17T09:46:07;15.75;;;12.35;;
44558;SDS011;30270;40.238;18.256;2022-10-17T09:48:50;16.73;;;11.55;;
44558;SDS011;30270;40.238;18.256;2022-10-17T09:51:23;18.70;;;13.32;;
44558;SDS011;30270;40.238;18.256;2022-10-17T09:54:02;18.17;;;12.75;;
44558;SDS011;30270;40.238;18.256;2022-10-17T09:56:31;15.57;;;11.57;;
44558;SDS011;30270;40.238;18.256;2022-10-17T09:59:59;17.55;;;11.90;;
44558;SDS011;30270;40.238;18.256;2022-10-17T10:02:24;17.15;;;10.85;;
44558;SDS011;30270;40.238;18.256;2022-10-17T10:05:02;18.85;;;13.25;;
44558;SDS011;30270;40.238;18.256;2022-10-17T10:07:36;17.35;;;12.20;;
44558;SDS011;30270;40.238;18.256;2022-10-17T10:10:06;21.90;;;11.45;;
44558;SDS011;30270;40.238;18.256;2022-10-17T10:13:02;16.73;;;11.73;;
44558;SDS011;30270;40.238;18.256;2022-10-17T10:15:44;16.55;;;11.77;;
44558;SDS011;30270;40.238;18.256;2022-10-17T10:21:11;16.15;;;11.82;;
44558;SDS011;30270;40.238;18.256;2022-10-17T10:23:41;17.30;;;11.88;;
44558;SDS011;30270;40.238;18.256;2022-10-17T10:28:59;18.77;;;12.35;;
44558;SDS011;30270;40.238;18.256;2022-10-17T10:31:30;17.10;;;13.40;;
44558;SDS011;30270;40.238;18.256;2022-10-17T10:34:12;16.77;;;11.25;;
44558;SDS011;30270;40.238;18.256;2022-10-17T10:36:49;16.17;;;11.30;;
44558;SDS011;30270;40.238;18.256;2022-10-17T10:39:26;19.42;;;11.38;;
44558;SDS011;30270;40.238;18.256;2022-10-17T10:41:54;19.08;;;12.35;;
44558;SDS011;30270;40.238;18.256;2022-10-17T10:44:24;17.83;;;12.15;;
44558;SDS011;30270;40.238;18.256;2022-10-17T10:50:16;15.43;;;10.40;;
44558;SDS011;30270;40.238;18.256;2022-10-17T10:55:41;18.08;;;10.95;;
44558;SDS011;30270;40.238;18.256;2022-10-17T11:00:55;17.15;;;10.88;;
44558;SDS011;30270;40.238;18.256;2022-10-17T11:03:28;17.23;;;12.05;;
44558;SDS011;30270;40.238;18.256;2022-10-17T11:06:31;19.23;;;13.00;;
44558;SDS011;30270;40.238;18.256;2022-10-17T11:11:47;15.10;;;9.38;;
44558;SDS011;30270;40.238;18.256;2022-10-17T11:17:11;17.38;;;10.27;;
44558;SDS011;30270;40.238;18.256;2022-10-17T11:24:58;16.40;;;11.10;;
44558;SDS011;30270;40.238;18.256;2022-10-17T11:27:27;16.50;;;10.65;;
44558;SDS011;30270;40.238;18.256;2022-10-17T11:29:56;16.73;;;10.73;;
44558;SDS011;30270;40.238;18.256;2022-10-17T11:35:24;15.05;;;9.20;;
44558;SDS011;30270;40.238;18.256;2022-10-17T11:38:11;13.80;;;9.82;;
44558;SDS011;30270;40.238;18.256;2022-10-17T11:40:52;11.87;;;7.53;;
44558;SDS011;30270;40.238;18.256;2022-10-17T11:45:57;13.90;;;8.63;;
44558;SDS011;30270;40.238;18.256;2022-10-17T11:48:30;12.30;;;7.55;;
44558;SDS011;30270;40.238;18.256;2022-10-17T11:51:05;10.97;;;7.37;;
44558;SDS011;30270;40.238;18.256;2022-10-17T11:54:07;9.57;;;6.00;;
44558;SDS011;30270;40.238;18.256;2022-10-17T11:57:02;7.80;;;6.03;;
44558;SDS011;30270;40.238;18.256;2022-10-17T12:02:49;10.13;;;5.53;;
44558;SDS011;30270;40.238;18.256;2022-10-17T12:08:26;7.93;;;4.40;;
44558;SDS011;30270;40.238;18.256;2022-10-17T12:13:51;5.05;;;3.80;;
44558;SDS011;30270;40.238;18.256;2022-10-17T12:21:53;11.98;;;5.00;;
44558;SDS011;30270;40.238;18.256;2022-10-17T12:30:24;9.10;;;5.88;;
44558;SDS011;30270;40.238;18.256;2022-10-17T12:32:58;7.88;;;5.05;;
44558;SDS011;30270;40.238;18.256;2022-10-17T12:35:49;7.65;;;5.15;;
44558;SDS011;30270;40.238;18.256;2022-10-17T12:38:37;8.93;;;5.75;;
44558;SDS011;30270;40.238;18.256;2022-10-17T12:41:05;9.48;;;5.55;;
44558;SDS011;30270;40.238;18.256;2022-10-17T12:43:43;9.15;;;6.38;;
44558;SDS011;30270;40.238;18.256;2022-10-17T12:55:09;11.30;;;7.25;;
44558;SDS011;30270;40.238;18.256;2022-10-17T13:03:45;11.18;;;7.03;;
44558;SDS011;30270;40.238;18.256;2022-10-17T13:06:19;10.57;;;7.28;;
44558;SDS011;30270;40.238;18.256;2022-10-17T13:08:57;12.30;;;8.95;;
44558;SDS011;30270;40.238;18.256;2022-10-17T13:11:30;11.85;;;7.53;;
44558;SDS011;30270;40.238;18.256;2022-10-17T13:14:01;11.73;;;8.43;;
44558;SDS011;30270;40.238;18.256;2022-10-17T13:16:37;13.43;;;9.93;;
44558;SDS011;30270;40.238;18.256;2022-10-17T13:19:14;14.20;;;9.40;;
44558;SDS011;30270;40.238;18.256;2022-10-17T13:21:51;16.42;;;11.07;;
44558;SDS011;30270;40.238;18.256;2022-10-17T13:24:32;14.43;;;9.93;;
44558;SDS011;30270;40.238;18.256;2022-10-17T13:27:02;16.67;;;11.23;;
44558;SDS011;30270;40.238;18.256;2022-10-17T13:29:31;15.13;;;11.48;;
44558;SDS011;30270;40.238;18.256;2022-10-17T13:32:00;14.90;;;9.68;;
44558;SDS011;30270;40.238;18.256;2022-10-17T13:34:30;16.42;;;11.30;;
44558;SDS011;30270;40.238;18.256;2022-10-17T13:37:01;15.20;;;10.82;;
44558;SDS011;30270;40.238;18.256;2022-10-17T13:39:49;14.40;;;10.32;;
44558;SDS011;30270;40.238;18.256;2022-10-17T13:42:30;17.98;;;12.18;;
44558;SDS011;30270;40.238;18.256;2022-10-17T13:45:09;16.77;;;10.63;;
44558;SDS011;30270;40.238;18.256;2022-10-17T13:47:44;16.27;;;11.15;;
44558;SDS011;30270;40.238;18.256;2022-10-17T13:50:18;17.50;;;11.48;;
44558;SDS011;30270;40.238;18.256;2022-10-17T13:53:16;18.92;;;12.35;;
44558;SDS011;30270;40.238;18.256;2022-10-17T13:58:38;19.80;;;13.57;;
44558;SDS011;30270;40.238;18.256;2022-10-17T14:01:11;18.15;;;11.80;;
44558;SDS011;30270;40.238;18.256;2022-10-17T14:03:41;21.95;;;12.48;;
44558;SDS011;30270;40.238;18.256;2022-10-17T14:11:29;14.13;;;11.43;;
44558;SDS011;30270;40.238;18.256;2022-10-17T14:14:17;20.15;;;12.48;;
44558;SDS011;30270;40.238;18.256;2022-10-17T14:16:49;16.50;;;11.50;;
44558;SDS011;30270;40.238;18.256;2022-10-17T14:19:25;19.35;;;12.27;;
44558;SDS011;30270;40.238;18.256;2022-10-17T14:22:16;20.77;;;13.90;;
44558;SDS011;30270;40.238;18.256;2022-10-17T14:24:50;16.05;;;11.27;;
44558;SDS011;30270;40.238;18.256;2022-10-17T14:27:29;21.23;;;13.25;;
44558;SDS011;30270;40.238;18.256;2022-10-17T14:29:58;20.65;;;11.70;;
44558;SDS011;30270;40.238;18.256;2022-10-17T14:32:30;20.73;;;12.23;;
44558;SDS011;30270;40.238;18.256;2022-10-17T14:35:02;17.67;;;13.25;;
44558;SDS011;30270;40.238;18.256;2022-10-17T14:37:47;23.15;;;13.10;;
44558;SDS011;30270;40.238;18.256;2022-10-17T14:40:19;20.90;;;13.45;;
44558;SDS011;30270;40.238;18.256;2022-10-17T14:42:51;18.45;;;11.27;;
44558;SDS011;30270;40.238;18.256;2022-10-17T14:45:27;19.25;;;13.48;;
44558;SDS011;30270;40.238;18.256;2022-10-17T14:48:04;17.33;;;12.98;;
44558;SDS011;30270;40.238;18.256;2022-10-17T14:51:03;18.27;;;13.68;;
44558;SDS011;30270;40.238;18.256;2022-10-17T14:53:32;19.52;;;12.60;;
44558;SDS011;30270;40.238;18.256;2022-10-17T14:56:19;16.95;;;13.02;;
44558;SDS011;30270;40.238;18.256;2022-10-17T14:58:48;22.38;;;14.07;;
44558;SDS011;30270;40.238;18.256;2022-10-17T15:01:16;22.35;;;14.95;;
44558;SDS011;30270;40.238;18.256;2022-10-17T15:03:45;18.17;;;13.68;;
44558;SDS011;30270;40.238;18.256;2022-10-17T15:06:17;19.50;;;13.88;;
44558;SDS011;30270;40.238;18.256;2022-10-17T15:08:47;20.05;;;12.90;;
44558;SDS011;30270;40.238;18.256;2022-10-17T15:11:15;19.38;;;12.02;;
44558;SDS011;30270;40.238;18.256;2022-10-17T15:13:43;20.05;;;14.32;;
44558;SDS011;30270;40.238;18.256;2022-10-17T15:16:12;23.17;;;15.35;;
44558;SDS011;30270;40.238;18.256;2022-10-17T15:18:45;22.85;;;14.20;;
44558;SDS011;30270;40.238;18.256;2022-10-17T15:21:15;21.92;;;14.35;;
44558;SDS011;30270;40.238;18.256;2022-10-17T15:23:51;22.90;;;13.85;;
44558;SDS011;30270;40.238;18.256;2022-10-17T15:28:49;23.33;;;16.73;;
44558;SDS011;30270;40.238;18.256;2022-10-17T15:31:18;21.83;;;15.38;;
44558;SDS011;30270;40.238;18.256;2022-10-17T15:33:48;23.85;;;14.45;;
44558;SDS011;30270;40.238;18.256;2022-10-17T15:38:52;22.83;;;13.93;;
44558;SDS011;30270;40.238;18.256;2022-10-17T15:41:23;25.48;;;16.05;;
44558;SDS011;30270;40.238;18.256;2022-10-17T15:43:52;23.65;;;16.70;;
44558;SDS011;30270;40.238;18.256;2022-10-17T15:46:21;23.45;;;14.35;;
44558;SDS011;30270;40.238;18.256;2022-10-17T15:48:54;24.48;;;15.35;;
44558;SDS011;30270;40.238;18.256;2022-10-17T15:51:22;28.95;;;16.00;;
44558;SDS011;30270;40.238;18.256;2022-10-17T15:53:50;28.92;;;17.95;;
44558;SDS011;30270;40.238;18.256;2022-10-17T15:56:19;28.13;;;16.35;;
44558;SDS011;30270;40.238;18.256;2022-10-17T15:58:49;22.75;;;15.23;;
44558;SDS011;30270;40.238;18.256;2022-10-17T16:01:20;23.00;;;16.88;;
44558;SDS011;30270;40.238;18.256;2022-10-17T16:03:50;22.60;;;15.93;;
44558;SDS011;30270;40.238;18.256;2022-10-17T16:06:18;22.45;;;16.42;;
44558;SDS011;30270;40.238;18.256;2022-10-17T16:08:48;26.92;;;16.30;;
44558;SDS011;30270;40.238;18.256;2022-10-17T16:11:18;23.45;;;15.40;;
44558;SDS011;30270;40.238;18.256;2022-10-17T16:14:02;30.40;;;17.05;;
44558;SDS011;30270;40.238;18.256;2022-10-17T16:16:31;25.60;;;18.40;;
44558;SDS011;30270;40.238;18.256;2022-10-17T16:18:59;29.80;;;17.13;;
44558;SDS011;30270;40.238;18.256;2022-10-17T16:21:30;26.35;;;16.40;;
44558;SDS011;30270;40.238;18.256;2022-10-17T16:23:59;28.15;;;16.90;;
44558;SDS011;30270;40.238;18.256;2022-10-17T16:26:28;29.00;;;16.33;;
44558;SDS011;30270;40.238;18.256;2022-10-17T16:28:56;24.90;;;17.98;;
44558;SDS011;30270;40.238;18.256;2022-10-17T16:31:33;26.50;;;17.13;;
44558;SDS011;30270;40.238;18.256;2022-10-17T16:34:02;23.38;;;16.50;;
44558;SDS011;30270;40.238;18.256;2022-10-17T16:36:32;29.58;;;19.90;;
44558;SDS011;30270;40.238;18.256;2022-10-17T16:39:00;28.98;;;18.70;;
44558;SDS011;30270;40.238;18.256;2022-10-17T16:41:29;32.10;;;19.02;;
44558;SDS011;30270;40.238;18.256;2022-10-17T16:44:03;27.50;;;18.63;;
44558;SDS011;30270;40.238;18.256;2022-10-17T16:46:34;31.77;;;18.90;;
44558;SDS011;30270;40.238;18.256;2022-10-17T16:49:03;30.38;;;18.63;;
44558;SDS011;30270;40.238;18.256;2022-10-17T16:51:32;25.60;;;17.42;;
44558;SDS011;30270;40.238;18.256;2022-10-17T16:54:02;29.40;;;17.35;;
44558;SDS011;30270;40.238;18.256;2022-10-17T16:56:30;24.67;;;16.45;;
44558;SDS011;30270;40.238;18.256;2022-10-17T16:59:01;27.70;;;17.00;;
44558;SDS011;30270;40.238;18.256;2022-10-17T17:01:30;25.85;;;18.13;;